Time;durP1;ratioP1;P1;durP2;ratioP2;P2;SDS_P1;SDS_P2;PMS_P1;PMS_P2;Temp;Humidity;BMP_temperature;BMP_pressure;BME280_temperature;BME280_humidity;BME280_pressure;Samples;Min_cycle;Max_cycle;Signal;HPM_P1;HPM_P2
2024/01/14 00:01:35;;;;;;;;;;;0.90;99.90;;;;;;4928077;28;19927;-73
2024/01/14 00:04:03;;;;;;;;;;;0.80;99.90;;;;;;4921256;28;19927;-71
2024/01/14 00:06:31;;;;;;;;;;;0.80;99.90;;;;;;4941835;28;19969;-72
2024/01/14 00:08:59;;;;;;;;;;;0.80;99.90;;;;;;4921782;28;20010;-72
2024/01/14 00:11:27;;;;;;;;;;;0.70;99.90;;;;;;4920267;28;19966;-73
2024/01/14 00:13:55;;;;;;;;;;;0.70;99.90;;;;;;4925308;28;19927;-72
2024/01/14 00:16:24;;;;;;;;;;;0.80;99.90;;;;;;4931907;28;20401;-72
2024/01/14 00:18:51;;;;;;;;;;;0.80;99.90;;;;;;4931132;28;19927;-72
2024/01/14 00:21:19;;;;;;;;;;;0.80;99.90;;;;;;4930297;28;20026;-72
2024/01/14 00:23:47;;;;;;;;;;;0.80;99.90;;;;;;4930964;29;19985;-72
2024/01/14 00:26:15;;;;;;;;;;;0.80;99.90;;;;;;4930604;29;20006;-73
2024/01/14 00:28:43;;;;;;;;;;;0.80;99.90;;;;;;4930733;28;19934;-73
2024/01/14 00:31:11;;;;;;;;;;;0.80;99.90;;;;;;4930605;28;19937;-75
2024/01/14 00:33:40;;;;;;;;;;;0.80;99.90;;;;;;4930728;28;19950;-72
2024/01/14 00:36:09;;;;;;;;;;;0.80;99.90;;;;;;4927480;28;19934;-72
2024/01/14 00:38:37;;;;;;;;;;;1.00;99.90;;;;;;4930579;28;19980;-72
2024/01/14 00:41:05;;;;;;;;;;;1.00;99.90;;;;;;4930386;29;20341;-72
2024/01/14 00:43:33;;;;;;;;;;;0.90;99.90;;;;;;4930394;29;19934;-73
2024/01/14 00:46:02;;;;;;;;;;;0.90;99.90;;;;;;4930275;29;19927;-73
2024/01/14 00:48:30;;;;;;;;;;;0.80;99.90;;;;;;4930184;28;20856;-74
2024/01/14 00:50:59;;;;;;;;;;;0.90;99.90;;;;;;4930686;28;19972;-75
2024/01/14 00:53:27;;;;;;;;;;;0.90;99.90;;;;;;4929198;28;19929;-72
2024/01/14 00:55:55;;;;;;;;;;;0.80;99.90;;;;;;4930122;29;19931;-72
2024/01/14 00:58:23;;;;;;;;;;;0.80;99.90;;;;;;4929902;29;19942;-72
2024/01/14 01:00:50;;;;;;;;;;;0.70;99.90;;;;;;4930353;29;19930;-73
2024/01/14 01:03:18;;;;;;;;;;;0.70;99.90;;;;;;4930269;28;19969;-71
2024/01/14 01:05:46;;;;;;;;;;;0.90;99.90;;;;;;4925135;29;20302;-72
2024/01/14 01:08:16;;;;;;;;;;;1.00;99.90;;;;;;4927947;28;19927;-72
2024/01/14 01:10:43;;;;;;;;;;;1.10;99.90;;;;;;4933045;28;19950;-72
2024/01/14 01:13:11;;;;;;;;;;;1.00;99.90;;;;;;4932985;28;19927;-71
2024/01/14 01:15:39;;;;;;;;;;;0.90;99.90;;;;;;4937268;28;20294;-73
2024/01/14 01:18:07;;;;;;;;;;;0.80;99.90;;;;;;4945136;28;19930;-72
2024/01/14 01:20:35;;;;;;;;;;;1.00;99.90;;;;;;4940600;28;19934;-73
2024/01/14 01:23:03;;;;;;;;;;;0.90;99.90;;;;;;4939961;28;19930;-72
2024/01/14 01:25:32;;;;;;;;;;;0.90;99.90;;;;;;4941274;28;19933;-72
2024/01/14 01:28:00;;;;;;;;;;;1.00;99.90;;;;;;4933449;28;19939;-75
2024/01/14 01:30:27;;;;;;;;;;;1.00;99.90;;;;;;4940790;28;19934;-72
2024/01/14 01:32:55;;;;;;;;;;;0.80;99.90;;;;;;4939608;28;19926;-72
2024/01/14 01:35:23;;;;;;;;;;;0.90;99.90;;;;;;4943360;28;20028;-74
2024/01/14 01:37:51;;;;;;;;;;;1.10;99.90;;;;;;4940897;28;19934;-73
2024/01/14 01:40:19;;;;;;;;;;;1.00;99.90;;;;;;4940738;28;19927;-72
2024/01/14 01:42:49;;;;;;;;;;;1.00;99.90;;;;;;4937739;28;19926;-73
2024/01/14 01:45:17;;;;;;;;;;;1.00;99.90;;;;;;4935172;28;19950;-72
2024/01/14 01:47:45;;;;;;;;;;;1.00;99.90;;;;;;4944565;28;20283;-73
2024/01/14 01:50:13;;;;;;;;;;;1.00;99.90;;;;;;4943876;28;19937;-75
2024/01/14 01:52:41;;;;;;;;;;;1.00;99.90;;;;;;4936662;28;19933;-73
2024/01/14 01:55:10;;;;;;;;;;;1.00;99.90;;;;;;4944045;28;19932;-72
2024/01/14 01:57:39;;;;;;;;;;;1.00;99.90;;;;;;4943742;28;19930;-73
2024/01/14 02:00:09;;;;;;;;;;;0.90;99.90;;;;;;4944494;28;20313;-72
2024/01/14 02:02:40;;;;;;;;;;;0.90;99.90;;;;;;4935796;28;20028;-75
2024/01/14 02:05:08;;;;;;;;;;;1.20;99.90;;;;;;4937575;28;19934;-73
2024/01/14 02:07:36;;;;;;;;;;;1.50;99.90;;;;;;4939591;28;20009;-72
2024/01/14 02:10:05;;;;;;;;;;;1.70;99.90;;;;;;4932598;28;19934;-73
2024/01/14 02:12:33;;;;;;;;;;;1.70;99.90;;;;;;4940166;28;20496;-72
2024/01/14 02:15:00;;;;;;;;;;;1.60;99.90;;;;;;4946574;28;19931;-74
2024/01/14 02:17:30;;;;;;;;;;;1.50;99.90;;;;;;4941533;28;19974;-75
2024/01/14 02:19:58;;;;;;;;;;;1.60;99.90;;;;;;4938852;28;19988;-72
2024/01/14 02:22:28;;;;;;;;;;;1.70;99.90;;;;;;4949138;28;19938;-73
2024/01/14 02:24:57;;;;;;;;;;;1.40;99.90;;;;;;4932004;28;19934;-72
2024/01/14 02:27:25;;;;;;;;;;;1.50;99.90;;;;;;4947401;28;19934;-73
2024/01/14 02:29:54;;;;;;;;;;;1.50;99.90;;;;;;4932407;28;19931;-73
2024/01/14 02:32:22;;;;;;;;;;;1.70;99.90;;;;;;4933381;28;19934;-73
2024/01/14 02:34:50;;;;;;;;;;;1.80;99.90;;;;;;4943399;28;20404;-73
2024/01/14 02:37:18;;;;;;;;;;;1.90;99.90;;;;;;4931571;28;20310;-72
2024/01/14 02:39:45;;;;;;;;;;;2.10;99.90;;;;;;4932605;28;19927;-74
2024/01/14 02:42:15;;;;;;;;;;;2.10;99.90;;;;;;4932050;28;19927;-74
2024/01/14 02:44:42;;;;;;;;;;;2.20;99.90;;;;;;4939361;28;19926;-70
2024/01/14 02:47:10;;;;;;;;;;;2.30;99.90;;;;;;4939131;28;19927;-72
2024/01/14 02:49:38;;;;;;;;;;;2.00;99.90;;;;;;4936498;28;20317;-73
2024/01/14 02:52:06;;;;;;;;;;;1.80;99.90;;;;;;4936097;28;19926;-72
2024/01/14 02:54:33;;;;;;;;;;;2.00;99.90;;;;;;4931651;28;20021;-72
2024/01/14 02:57:01;;;;;;;;;;;2.10;99.90;;;;;;4945944;28;20274;-72
2024/01/14 02:59:32;;;;;;;;;;;1.80;99.90;;;;;;4950851;28;20011;-71
2024/01/14 03:02:01;;;;;;;;;;;1.80;99.90;;;;;;4944825;28;20210;-72
2024/01/14 03:04:28;;;;;;;;;;;1.70;99.90;;;;;;4939520;28;19926;-75
2024/01/14 03:06:56;;;;;;;;;;;1.60;99.90;;;;;;4930936;28;19976;-72
2024/01/14 03:09:24;;;;;;;;;;;1.40;99.90;;;;;;4939204;28;19937;-72
2024/01/14 03:11:52;;;;;;;;;;;1.10;99.90;;;;;;4931750;28;19934;-72
2024/01/14 03:14:20;;;;;;;;;;;1.20;99.90;;;;;;4939701;28;19926;-72
2024/01/14 03:16:49;;;;;;;;;;;1.00;99.90;;;;;;4938160;28;19937;-73
2024/01/14 03:19:17;;;;;;;;;;;1.00;99.90;;;;;;4932235;28;20384;-72
2024/01/14 03:21:45;;;;;;;;;;;1.50;99.90;;;;;;4931505;28;20325;-73
2024/01/14 03:24:13;;;;;;;;;;;1.90;99.90;;;;;;4931894;28;19927;-73
2024/01/14 03:26:41;;;;;;;;;;;2.30;99.90;;;;;;4931547;28;20033;-73
2024/01/14 03:29:09;;;;;;;;;;;2.20;99.90;;;;;;4946658;28;19992;-73
2024/01/14 03:31:36;;;;;;;;;;;2.00;99.90;;;;;;4938898;28;20353;-73
2024/01/14 03:34:05;;;;;;;;;;;1.50;99.90;;;;;;4931315;28;19937;-76
2024/01/14 03:36:33;;;;;;;;;;;1.30;99.90;;;;;;4930775;28;20404;-73
2024/01/14 03:39:03;;;;;;;;;;;1.10;99.90;;;;;;4931177;28;19927;-72
2024/01/14 03:41:31;;;;;;;;;;;0.90;99.90;;;;;;4940920;28;19927;-73
2024/01/14 03:43:59;;;;;;;;;;;1.10;99.90;;;;;;4950478;28;19927;-73
2024/01/14 03:46:27;;;;;;;;;;;1.60;99.90;;;;;;4933737;28;19927;-72
2024/01/14 03:48:54;;;;;;;;;;;2.00;99.90;;;;;;4942410;28;19965;-72
2024/01/14 03:51:24;;;;;;;;;;;1.80;99.90;;;;;;4933156;28;19927;-72
2024/01/14 03:53:51;;;;;;;;;;;1.80;99.90;;;;;;4939171;28;19970;-72
2024/01/14 03:56:19;;;;;;;;;;;1.50;99.90;;;;;;4944038;28;20369;-75
2024/01/14 03:58:47;;;;;;;;;;;1.20;99.90;;;;;;4938803;28;20394;-72
2024/01/14 04:01:18;;;;;;;;;;;0.90;99.90;;;;;;4938649;28;20020;-76
2024/01/14 04:03:47;;;;;;;;;;;0.70;99.90;;;;;;4950203;28;19926;-71
2024/01/14 04:06:15;;;;;;;;;;;0.60;99.90;;;;;;4934335;28;19927;-75
2024/01/14 04:08:44;;;;;;;;;;;0.60;99.90;;;;;;4931126;28;19927;-73
2024/01/14 04:11:12;;;;;;;;;;;0.50;99.90;;;;;;4946315;28;19950;-77
2024/01/14 04:13:40;;;;;;;;;;;0.40;99.90;;;;;;4930347;28;19927;-71
2024/01/14 04:16:08;;;;;;;;;;;0.50;99.90;;;;;;4937491;28;19933;-72
2024/01/14 04:18:36;;;;;;;;;;;0.40;99.90;;;;;;4939603;28;19988;-72
2024/01/14 04:21:04;;;;;;;;;;;0.40;99.90;;;;;;4945002;28;20384;-71
2024/01/14 04:23:32;;;;;;;;;;;0.40;99.90;;;;;;4933460;28;19931;-71
2024/01/14 04:26:05;;;;;;;;;;;0.20;99.90;;;;;;4949518;28;19927;-72
2024/01/14 04:28:33;;;;;;;;;;;0.30;99.90;;;;;;4931621;28;19933;-72
2024/01/14 04:31:01;;;;;;;;;;;0.40;99.90;;;;;;4930129;28;19926;-72
2024/01/14 04:33:29;;;;;;;;;;;0.40;99.90;;;;;;4946445;28;19930;-72
2024/01/14 04:35:57;;;;;;;;;;;0.40;99.90;;;;;;4935946;28;19961;-72
2024/01/14 04:38:25;;;;;;;;;;;0.50;99.90;;;;;;4932751;28;19935;-72
2024/01/14 04:40:52;;;;;;;;;;;0.70;99.90;;;;;;4955631;28;19925;-73
2024/01/14 04:43:21;;;;;;;;;;;0.70;99.90;;;;;;4954436;28;19926;-73
2024/01/14 04:45:49;;;;;;;;;;;1.00;99.90;;;;;;4938917;28;20393;-73
2024/01/14 04:48:17;;;;;;;;;;;0.80;99.90;;;;;;4987276;28;19929;-74
2024/01/14 04:50:45;;;;;;;;;;;0.60;99.90;;;;;;4945391;28;19934;-72
2024/01/14 04:53:13;;;;;;;;;;;0.50;99.90;;;;;;4945451;28;19926;-72
2024/01/14 04:55:41;;;;;;;;;;;0.30;99.90;;;;;;4940712;28;20021;-72
2024/01/14 04:58:08;;;;;;;;;;;0.20;99.90;;;;;;4953447;28;19926;-73
2024/01/14 05:00:38;;;;;;;;;;;0.10;99.90;;;;;;4942219;29;19934;-73
2024/01/14 05:03:05;;;;;;;;;;;0.00;99.90;;;;;;4933788;28;19954;-73
2024/01/14 05:05:33;;;;;;;;;;;0.10;99.90;;;;;;4935287;28;19927;-73
2024/01/14 05:08:01;;;;;;;;;;;0.00;99.90;;;;;;4944668;28;19970;-73
2024/01/14 05:10:29;;;;;;;;;;;-0.10;99.90;;;;;;4947982;28;19984;-73
2024/01/14 05:12:57;;;;;;;;;;;0.00;99.90;;;;;;4961487;28;19932;-73
2024/01/14 05:15:25;;;;;;;;;;;0.10;99.90;;;;;;4952455;28;19926;-73
2024/01/14 05:17:54;;;;;;;;;;;0.10;99.90;;;;;;4934847;28;19989;-73
2024/01/14 05:20:22;;;;;;;;;;;0.30;99.90;;;;;;4940995;28;20033;-72
2024/01/14 05:22:50;;;;;;;;;;;0.20;99.90;;;;;;4941838;28;19977;-73
2024/01/14 05:25:18;;;;;;;;;;;0.20;99.90;;;;;;4933101;28;19933;-73
2024/01/14 05:27:46;;;;;;;;;;;0.10;99.90;;;;;;4942898;28;19926;-73
2024/01/14 05:30:14;;;;;;;;;;;0.00;99.90;;;;;;4944821;28;19933;-73
2024/01/14 05:32:42;;;;;;;;;;;0.00;99.90;;;;;;4943822;28;20424;-74
2024/01/14 05:35:11;;;;;;;;;;;0.00;99.90;;;;;;4937284;28;19989;-74
2024/01/14 05:37:39;;;;;;;;;;;0.00;99.90;;;;;;4940673;28;19934;-75
2024/01/14 05:40:07;;;;;;;;;;;-0.10;99.90;;;;;;4933210;28;19934;-74
2024/01/14 05:42:35;;;;;;;;;;;-0.20;99.90;;;;;;4940433;28;20309;-74
2024/01/14 05:45:03;;;;;;;;;;;-0.20;99.90;;;;;;4933000;28;19927;-75
2024/01/14 05:47:31;;;;;;;;;;;-0.20;99.90;;;;;;4934587;28;19942;-75
2024/01/14 05:49:59;;;;;;;;;;;-0.30;99.90;;;;;;4941284;28;20481;-71
2024/01/14 05:52:29;;;;;;;;;;;-0.40;99.90;;;;;;4975677;28;19929;-74
2024/01/14 05:54:56;;;;;;;;;;;-0.30;99.90;;;;;;4943676;28;19977;-73
2024/01/14 05:57:24;;;;;;;;;;;-0.40;99.90;;;;;;4951414;28;19927;-73
2024/01/14 05:59:52;;;;;;;;;;;-0.30;99.90;;;;;;4945619;28;19930;-74
2024/01/14 06:02:20;;;;;;;;;;;-0.20;99.90;;;;;;4951578;28;19966;-74
2024/01/14 06:04:48;;;;;;;;;;;0.00;99.90;;;;;;4948164;28;19927;-74
2024/01/14 06:07:16;;;;;;;;;;;0.30;99.90;;;;;;4932108;28;19980;-75
2024/01/14 06:09:45;;;;;;;;;;;0.40;99.90;;;;;;4935961;28;19957;-74
2024/01/14 06:12:13;;;;;;;;;;;0.30;99.90;;;;;;4951396;28;19926;-74
2024/01/14 06:14:41;;;;;;;;;;;0.30;99.90;;;;;;4943526;28;20017;-74
2024/01/14 06:17:09;;;;;;;;;;;0.50;99.90;;;;;;4943114;28;19933;-74
2024/01/14 06:19:37;;;;;;;;;;;0.60;99.90;;;;;;4951303;28;19927;-74
2024/01/14 06:22:05;;;;;;;;;;;0.50;99.90;;;;;;4943263;28;19926;-74
2024/01/14 06:24:33;;;;;;;;;;;0.30;99.90;;;;;;4941505;28;19949;-75
2024/01/14 06:27:02;;;;;;;;;;;0.00;99.90;;;;;;4945922;28;19926;-74
2024/01/14 06:29:30;;;;;;;;;;;-0.10;99.90;;;;;;4941837;28;20404;-73
2024/01/14 06:31:59;;;;;;;;;;;-0.30;99.90;;;;;;4940058;28;19931;-74
2024/01/14 06:34:26;;;;;;;;;;;-0.30;99.90;;;;;;4939912;28;19930;-74
2024/01/14 06:36:54;;;;;;;;;;;-0.40;99.90;;;;;;4931843;28;19934;-75
2024/01/14 06:39:22;;;;;;;;;;;-0.30;99.90;;;;;;4940082;28;19934;-74
2024/01/14 06:41:50;;;;;;;;;;;-0.20;99.90;;;;;;4943234;28;19931;-74
2024/01/14 06:44:19;;;;;;;;;;;-0.30;99.90;;;;;;4943401;28;19973;-76
2024/01/14 06:46:48;;;;;;;;;;;0.00;99.90;;;;;;4943032;28;19926;-72
2024/01/14 06:49:15;;;;;;;;;;;0.20;99.90;;;;;;4951051;28;19934;-73
2024/01/14 06:51:44;;;;;;;;;;;0.20;99.90;;;;;;4939216;28;19962;-71
2024/01/14 06:54:12;;;;;;;;;;;-0.10;99.90;;;;;;4938814;28;19937;-72
2024/01/14 06:56:43;;;;;;;;;;;-0.30;99.90;;;;;;4940145;28;19942;-72
2024/01/14 06:59:13;;;;;;;;;;;-0.40;99.90;;;;;;4946745;28;19933;-72
2024/01/14 07:01:42;;;;;;;;;;;-0.30;99.90;;;;;;4947801;28;19931;-73
2024/01/14 07:04:10;;;;;;;;;;;-0.30;99.90;;;;;;4931808;28;19934;-72
2024/01/14 07:06:38;;;;;;;;;;;-0.30;99.90;;;;;;4938732;28;19933;-72
2024/01/14 07:09:08;;;;;;;;;;;-0.40;99.90;;;;;;4937754;28;19926;-72
2024/01/14 07:11:36;;;;;;;;;;;-0.50;99.90;;;;;;4950107;28;19933;-69
2024/01/14 07:14:04;;;;;;;;;;;-0.40;99.90;;;;;;4953199;28;19926;-70
2024/01/14 07:16:31;;;;;;;;;;;-0.50;99.90;;;;;;4950574;28;19927;-73
2024/01/14 07:19:01;;;;;;;;;;;-0.60;99.90;;;;;;4951517;28;19940;-71
2024/01/14 07:21:29;;;;;;;;;;;-0.80;99.90;;;;;;4952320;28;20016;-71
2024/01/14 07:23:57;;;;;;;;;;;-0.80;99.90;;;;;;4954982;28;20372;-72
2024/01/14 07:26:26;;;;;;;;;;;-0.80;99.90;;;;;;4972902;28;19926;-71
2024/01/14 07:28:53;;;;;;;;;;;-0.80;99.90;;;;;;4985637;28;20297;-71
2024/01/14 07:31:22;;;;;;;;;;;-0.80;99.90;;;;;;4975142;28;20300;-71
2024/01/14 07:33:50;;;;;;;;;;;-0.80;99.90;;;;;;4955371;28;19935;-71
2024/01/14 07:36:21;;;;;;;;;;;-0.90;99.90;;;;;;4947358;28;20005;-72
2024/01/14 07:38:50;;;;;;;;;;;-0.90;99.90;;;;;;4965349;28;20388;-73
2024/01/14 07:41:18;;;;;;;;;;;-0.90;99.90;;;;;;4957948;28;19925;-72
2024/01/14 07:43:46;;;;;;;;;;;-0.80;99.90;;;;;;4942677;28;19930;-72
2024/01/14 07:46:14;;;;;;;;;;;-0.90;99.90;;;;;;4950103;28;19930;-72
2024/01/14 07:48:42;;;;;;;;;;;-1.00;99.90;;;;;;4956255;28;19934;-72
2024/01/14 07:51:10;;;;;;;;;;;-1.00;99.90;;;;;;4956635;28;19934;-72
2024/01/14 07:53:39;;;;;;;;;;;-0.90;99.90;;;;;;4959122;28;19926;-73
2024/01/14 07:56:08;;;;;;;;;;;-0.70;99.90;;;;;;4949678;28;20014;-72
2024/01/14 07:58:35;;;;;;;;;;;-0.70;99.90;;;;;;4980208;28;20030;-72
2024/01/14 08:01:03;;;;;;;;;;;-0.80;99.90;;;;;;4949923;28;19996;-73
2024/01/14 08:03:31;;;;;;;;;;;-0.90;99.90;;;;;;4960550;28;19933;-69
2024/01/14 08:06:00;;;;;;;;;;;-1.00;99.90;;;;;;4949624;28;20405;-69
2024/01/14 08:08:28;;;;;;;;;;;-0.90;99.90;;;;;;4968421;28;19930;-70
2024/01/14 08:10:58;;;;;;;;;;;-0.90;99.90;;;;;;4989186;28;19925;-71
2024/01/14 08:13:26;;;;;;;;;;;-0.90;99.90;;;;;;4964973;28;20484;-71
2024/01/14 08:15:53;;;;;;;;;;;-1.00;99.90;;;;;;4934365;28;19933;-70
2024/01/14 08:18:29;;;;;;;;;;;-1.00;99.90;;;;;;4931946;28;19931;-68
2024/01/14 08:20:59;;;;;;;;;;;-1.00;99.90;;;;;;4936000;28;19931;-69
2024/01/14 08:23:29;;;;;;;;;;;-0.90;99.90;;;;;;4934502;28;19941;-69
2024/01/14 08:25:58;;;;;;;;;;;-0.90;99.90;;;;;;4935798;28;19945;-69
2024/01/14 08:28:26;;;;;;;;;;;-1.00;99.90;;;;;;4936292;28;20472;-70
2024/01/14 08:30:54;;;;;;;;;;;-0.90;99.90;;;;;;4936441;28;19935;-72
2024/01/14 08:33:22;;;;;;;;;;;-0.90;99.90;;;;;;4935084;28;19934;-72
2024/01/14 08:35:50;;;;;;;;;;;-0.90;99.90;;;;;;4934974;28;19931;-70
2024/01/14 08:38:18;;;;;;;;;;;-0.90;99.90;;;;;;4936408;28;19930;-69
2024/01/14 08:40:46;;;;;;;;;;;-0.90;99.90;;;;;;4935232;28;19931;-70
2024/01/14 08:43:15;;;;;;;;;;;-0.90;99.90;;;;;;4935847;28;19930;-68
2024/01/14 08:45:43;;;;;;;;;;;-0.80;99.90;;;;;;4935784;28;20367;-72
2024/01/14 08:48:13;;;;;;;;;;;-0.80;99.90;;;;;;4936810;28;20021;-74
2024/01/14 08:50:41;;;;;;;;;;;-0.80;99.90;;;;;;4935432;28;19955;-74
2024/01/14 08:53:09;;;;;;;;;;;-0.80;99.90;;;;;;4936197;28;19935;-70
2024/01/14 08:55:37;;;;;;;;;;;-0.90;99.90;;;;;;4936162;28;19938;-69
2024/01/14 08:58:04;;;;;;;;;;;-0.80;99.90;;;;;;4935109;28;19935;-72
2024/01/14 09:00:33;;;;;;;;;;;-0.80;99.90;;;;;;4936922;28;19931;-72
2024/01/14 09:03:01;;;;;;;;;;;-0.70;99.90;;;;;;4936968;28;19935;-71
2024/01/14 09:05:29;;;;;;;;;;;-0.70;99.90;;;;;;4935932;28;20324;-70
2024/01/14 09:07:57;;;;;;;;;;;-0.80;99.90;;;;;;4938585;28;19984;-71
2024/01/14 09:10:25;;;;;;;;;;;-0.80;99.90;;;;;;4937182;28;20471;-74
2024/01/14 09:12:52;;;;;;;;;;;-0.80;99.90;;;;;;4935854;28;19935;-72
2024/01/14 09:15:20;;;;;;;;;;;-0.70;99.90;;;;;;4937927;28;19933;-71
2024/01/14 09:17:50;;;;;;;;;;;-0.70;99.90;;;;;;4940182;28;19933;-74
2024/01/14 09:20:19;;;;;;;;;;;-0.80;99.90;;;;;;4941084;28;20359;-69
2024/01/14 09:22:47;;;;;;;;;;;-0.90;99.90;;;;;;4939595;28;20009;-73
2024/01/14 09:25:15;;;;;;;;;;;-0.70;99.90;;;;;;4939325;28;19938;-68
2024/01/14 09:27:43;;;;;;;;;;;-0.60;99.90;;;;;;4938922;28;22951;-73
2024/01/14 09:30:12;;;;;;;;;;;-0.60;99.90;;;;;;4939575;28;20860;-70
2024/01/14 09:32:41;;;;;;;;;;;-0.50;99.90;;;;;;4938259;28;20372;-71
2024/01/14 09:35:10;;;;;;;;;;;-0.60;99.90;;;;;;4939104;28;19946;-71
2024/01/14 09:37:38;;;;;;;;;;;-0.60;99.90;;;;;;4939064;28;19931;-71
2024/01/14 09:40:07;;;;;;;;;;;-0.50;99.90;;;;;;4938419;28;19935;-71
2024/01/14 09:42:35;;;;;;;;;;;-0.50;99.90;;;;;;4938377;28;19939;-73
2024/01/14 09:45:04;;;;;;;;;;;-0.50;99.90;;;;;;4938417;28;19938;-71
2024/01/14 09:47:32;;;;;;;;;;;-0.40;99.90;;;;;;4939146;28;19935;-73
2024/01/14 09:50:00;;;;;;;;;;;-0.50;99.90;;;;;;4939982;28;19934;-69
2024/01/14 09:52:31;;;;;;;;;;;-0.50;99.90;;;;;;4938270;28;20332;-67
2024/01/14 09:54:59;;;;;;;;;;;-0.40;99.90;;;;;;4939050;28;20007;-69
2024/01/14 09:57:29;;;;;;;;;;;-0.40;99.90;;;;;;4942310;28;19945;-70
2024/01/14 10:00:02;;;;;;;;;;;-0.40;99.90;;;;;;4940143;28;20553;-71
2024/01/14 10:02:31;;;;;;;;;;;-0.40;99.90;;;;;;4940188;28;19935;-69
2024/01/14 10:04:59;;;;;;;;;;;-0.20;99.90;;;;;;4938853;28;19942;-69
2024/01/14 10:07:27;;;;;;;;;;;-0.20;99.90;;;;;;4938122;28;19934;-71
2024/01/14 10:09:57;;;;;;;;;;;-0.10;99.90;;;;;;4937805;28;20024;-72
2024/01/14 10:12:25;;;;;;;;;;;-0.10;99.90;;;;;;4938555;28;19934;-69
2024/01/14 10:15:00;;;;;;;;;;;0.00;99.90;;;;;;4939215;28;20025;-68
2024/01/14 10:17:29;;;;;;;;;;;0.00;99.90;;;;;;4938257;28;19982;-69
2024/01/14 10:19:58;;;;;;;;;;;0.00;99.90;;;;;;4938290;28;20428;-68
2024/01/14 10:22:26;;;;;;;;;;;0.00;99.90;;;;;;4937006;28;20516;-72
2024/01/14 10:24:54;;;;;;;;;;;0.10;99.90;;;;;;4938268;28;19938;-67
2024/01/14 10:27:25;;;;;;;;;;;0.20;99.90;;;;;;4936676;28;19941;-70
2024/01/14 10:30:05;;;;;;;;;;;0.10;99.90;;;;;;4937509;28;19942;-69
2024/01/14 10:32:34;;;;;;;;;;;0.10;99.90;;;;;;4936303;28;19978;-71
2024/01/14 10:35:24;;;;;;;;;;;0.10;99.90;;;;;;4937158;28;20605;-72
2024/01/14 10:37:52;;;;;;;;;;;0.10;99.90;;;;;;4935746;28;19988;-71
2024/01/14 10:40:20;;;;;;;;;;;0.20;99.90;;;;;;4936917;28;19926;-69
2024/01/14 10:42:49;;;;;;;;;;;0.20;99.90;;;;;;4936552;28;19976;-69
2024/01/14 10:45:17;;;;;;;;;;;0.10;99.90;;;;;;4938724;28;20347;-70
2024/01/14 10:47:47;;;;;;;;;;;0.20;99.90;;;;;;4937414;28;19957;-69
2024/01/14 10:50:17;;;;;;;;;;;0.20;99.90;;;;;;4936670;28;19941;-72
2024/01/14 10:52:49;;;;;;;;;;;0.20;99.90;;;;;;4936754;28;19942;-74
2024/01/14 10:55:28;;;;;;;;;;;0.20;99.90;;;;;;4939344;28;19930;-74
2024/01/14 10:57:59;;;;;;;;;;;0.20;99.90;;;;;;4934631;28;19935;-71
2024/01/14 11:00:27;;;;;;;;;;;0.20;99.90;;;;;;4933786;28;19937;-68
2024/01/14 11:02:55;;;;;;;;;;;0.10;99.90;;;;;;4934039;28;20013;-69
2024/01/14 11:05:23;;;;;;;;;;;0.10;99.90;;;;;;4935473;28;19934;-70
2024/01/14 11:07:53;;;;;;;;;;;0.20;99.90;;;;;;4934575;28;20741;-71
2024/01/14 11:10:21;;;;;;;;;;;0.20;99.90;;;;;;4935179;28;19931;-68
2024/01/14 11:12:51;;;;;;;;;;;0.20;99.90;;;;;;4935589;28;19930;-72
2024/01/14 11:15:25;;;;;;;;;;;0.20;99.90;;;;;;4934961;28;20431;-72
2024/01/14 11:17:55;;;;;;;;;;;0.10;99.90;;;;;;4932405;28;19935;-69
2024/01/14 11:20:25;;;;;;;;;;;0.10;99.90;;;;;;4935685;28;20358;-70
2024/01/14 11:23:02;;;;;;;;;;;0.10;99.90;;;;;;4934072;28;20477;-73
2024/01/14 11:25:31;;;;;;;;;;;0.10;99.90;;;;;;4934343;28;19934;-70
2024/01/14 11:27:59;;;;;;;;;;;0.20;99.90;;;;;;4935435;28;19935;-70
2024/01/14 11:30:42;;;;;;;;;;;0.40;99.90;;;;;;4933255;28;19938;-70
2024/01/14 11:33:28;;;;;;;;;;;0.40;99.90;;;;;;4932450;28;20684;-69
2024/01/14 11:35:58;;;;;;;;;;;0.40;99.90;;;;;;4939023;28;19966;-71
2024/01/14 11:38:36;;;;;;;;;;;0.50;99.90;;;;;;4933000;28;19935;-73
2024/01/14 11:41:25;;;;;;;;;;;0.50;99.90;;;;;;4934510;28;19930;-73
2024/01/14 11:43:53;;;;;;;;;;;0.50;99.90;;;;;;4933539;28;19942;-73
2024/01/14 11:46:35;;;;;;;;;;;0.50;99.90;;;;;;4933344;28;19926;-71
2024/01/14 11:49:03;;;;;;;;;;;0.50;99.90;;;;;;4931483;28;19938;-71
2024/01/14 11:51:53;;;;;;;;;;;0.40;99.90;;;;;;4963164;22;19934;-65
2024/01/14 11:54:22;;;;;;;;;;;0.50;99.90;;;;;;4977317;28;19933;-67
2024/01/14 11:56:50;;;;;;;;;;;0.50;99.90;;;;;;4980389;28;19930;-66
2024/01/14 11:59:18;;;;;;;;;;;0.60;99.90;;;;;;4976584;28;20550;-66
2024/01/14 12:02:14;;;;;;;;;;;0.60;99.90;;;;;;4978159;28;19940;-66
2024/01/14 12:04:44;;;;;;;;;;;0.60;99.90;;;;;;4974238;28;21281;-68
2024/01/14 12:07:25;;;;;;;;;;;0.70;99.90;;;;;;4976687;28;19945;-67
2024/01/14 12:09:55;;;;;;;;;;;0.70;99.90;;;;;;4974887;28;19937;-65
2024/01/14 12:12:24;;;;;;;;;;;0.70;99.90;;;;;;4974254;28;19944;-65
2024/01/14 12:14:52;;;;;;;;;;;0.70;99.90;;;;;;4973301;28;19941;-66
2024/01/14 12:17:20;;;;;;;;;;;0.60;99.90;;;;;;4975104;28;19929;-66
2024/01/14 12:19:55;;;;;;;;;;;0.70;99.90;;;;;;4975410;28;20012;-66
2024/01/14 12:22:23;;;;;;;;;;;0.70;99.90;;;;;;4975142;28;20317;-66
2024/01/14 12:24:52;;;;;;;;;;;0.70;99.90;;;;;;4973293;28;19953;-66
2024/01/14 12:27:20;;;;;;;;;;;0.70;99.90;;;;;;4971872;28;19961;-66
2024/01/14 12:29:48;;;;;;;;;;;0.60;99.90;;;;;;4975583;28;20451;-66
2024/01/14 12:32:16;;;;;;;;;;;0.70;99.90;;;;;;4974736;28;19929;-66
2024/01/14 12:34:45;;;;;;;;;;;0.70;99.90;;;;;;4974804;28;19933;-66
2024/01/14 12:37:13;;;;;;;;;;;0.70;99.90;;;;;;4974748;28;19957;-66
2024/01/14 12:39:41;;;;;;;;;;;0.60;99.90;;;;;;4973470;28;20415;-66
2024/01/14 12:42:11;;;;;;;;;;;0.50;99.90;;;;;;4973193;28;20950;-66
2024/01/14 12:44:41;;;;;;;;;;;0.50;99.90;;;;;;4972435;28;19933;-66
2024/01/14 12:47:09;;;;;;;;;;;0.60;99.90;;;;;;4972930;28;19967;-65
2024/01/14 12:49:37;;;;;;;;;;;0.70;99.90;;;;;;4974865;28;20056;-66
2024/01/14 12:52:07;;;;;;;;;;;0.70;99.90;;;;;;5010305;28;20595;-66
2024/01/14 12:54:34;;;;;;;;;;;0.70;99.90;;;;;;5075248;28;19932;-66
2024/01/14 12:57:03;;;;;;;;;;;0.70;99.90;;;;;;5078209;28;19947;-66
2024/01/14 12:59:45;;;;;;;;;;;0.60;99.90;;;;;;5077016;28;19945;-66
2024/01/14 13:02:12;;;;;;;;;;;0.60;99.90;;;;;;5075482;28;21008;-66
2024/01/14 13:04:40;;;;;;;;;;;0.60;99.90;;;;;;5077438;28;19963;-66
2024/01/14 13:07:08;;;;;;;;;;;0.60;99.90;;;;;;5080824;28;19927;-67
2024/01/14 13:09:40;;;;;;;;;;;0.60;99.90;;;;;;5078466;28;19944;-66
2024/01/14 13:12:09;;;;;;;;;;;0.50;99.90;;;;;;5081566;28;19940;-66
2024/01/14 13:14:37;;;;;;;;;;;0.60;99.90;;;;;;5077740;28;20123;-66
2024/01/14 13:17:06;;;;;;;;;;;0.70;99.90;;;;;;5079853;28;20426;-66
2024/01/14 13:19:34;;;;;;;;;;;0.80;99.90;;;;;;5080095;28;19938;-67
2024/01/14 13:22:01;;;;;;;;;;;0.80;99.90;;;;;;5079425;28;20030;-67
2024/01/14 13:24:28;;;;;;;;;;;0.70;99.90;;;;;;5079522;28;19932;-67
2024/01/14 13:26:58;;;;;;;;;;;0.70;99.90;;;;;;5077676;28;19939;-67
2024/01/14 13:29:26;;;;;;;;;;;0.70;99.90;;;;;;5078636;28;20020;-67
2024/01/14 13:31:54;;;;;;;;;;;0.60;99.90;;;;;;5079179;28;19938;-67
2024/01/14 13:34:23;;;;;;;;;;;0.60;99.90;;;;;;5078612;28;20088;-68
2024/01/14 13:36:51;;;;;;;;;;;0.60;99.90;;;;;;5079337;28;19924;-67
2024/01/14 13:39:19;;;;;;;;;;;0.50;99.90;;;;;;5079313;28;19973;-66
2024/01/14 13:41:47;;;;;;;;;;;0.50;99.90;;;;;;5079491;28;20464;-67
2024/01/14 13:44:15;;;;;;;;;;;0.50;99.90;;;;;;5078912;28;19939;-66
2024/01/14 13:46:46;;;;;;;;;;;0.50;99.90;;;;;;5080619;28;20418;-66
2024/01/14 13:49:15;;;;;;;;;;;0.40;99.90;;;;;;5078739;28;20002;-68
2024/01/14 13:51:45;;;;;;;;;;;0.50;99.90;;;;;;5078980;28;19932;-66
2024/01/14 13:54:15;;;;;;;;;;;0.50;99.90;;;;;;5078543;28;19932;-68
2024/01/14 13:56:44;;;;;;;;;;;0.40;99.90;;;;;;5081032;28;20352;-66
2024/01/14 13:59:12;;;;;;;;;;;0.30;99.90;;;;;;5082077;28;19939;-68
2024/01/14 14:01:40;;;;;;;;;;;0.00;99.90;;;;;;5081291;28;19939;-66
2024/01/14 14:04:08;;;;;;;;;;;-0.10;99.90;;;;;;5079348;28;19935;-67
2024/01/14 14:06:37;;;;;;;;;;;-0.20;99.90;;;;;;5080993;28;19932;-67
2024/01/14 14:09:08;;;;;;;;;;;-0.10;99.90;;;;;;5081575;28;20031;-67
2024/01/14 14:11:37;;;;;;;;;;;-0.10;99.90;;;;;;5081011;28;20459;-67
2024/01/14 14:14:05;;;;;;;;;;;-0.20;99.90;;;;;;5078577;28;19938;-68
2024/01/14 14:16:33;;;;;;;;;;;-0.30;99.90;;;;;;5079903;28;19949;-66
2024/01/14 14:19:09;;;;;;;;;;;-0.40;99.90;;;;;;5081287;28;19932;-67
2024/01/14 14:21:38;;;;;;;;;;;-0.40;99.90;;;;;;5080632;28;20070;-67
2024/01/14 14:24:26;;;;;;;;;;;-0.30;99.90;;;;;;5077396;28;20105;-70
2024/01/14 14:26:55;;;;;;;;;;;-0.30;99.90;;;;;;5078489;28;19928;-69
2024/01/14 14:29:22;;;;;;;;;;;-0.30;99.90;;;;;;5079109;28;20408;-67
2024/01/14 14:31:53;;;;;;;;;;;-0.30;99.90;;;;;;5075175;28;19932;-70
2024/01/14 14:34:22;;;;;;;;;;;0.10;99.90;;;;;;5073608;28;20550;-69
2024/01/14 14:36:50;;;;;;;;;;;0.10;99.90;;;;;;5077125;28;20267;-69